sensor_id;sensor_type;location;lat;lon;timestamp;pressure;altitude;pressure_sealevel;temperature;humidity
33075;BME280;19433;51.292;6.868;2023-04-27T00:01:13;100756.84;;;2.93;100.00
33075;BME280;19433;51.292;6.868;2023-04-27T00:03:39;100748.81;;;2.91;99.79
33075;BME280;19433;51.292;6.868;2023-04-27T00:06:04;100755.47;;;2.89;100.00
33075;BME280;19433;51.292;6.868;2023-04-27T00:08:30;100758.03;;;2.90;100.00
33075;BME280;19433;51.292;6.868;2023-04-27T00:10:57;100743.69;;;2.78;100.00
33075;BME280;19433;51.292;6.868;2023-04-27T00:13:22;100753.19;;;2.74;100.00
33075;BME280;19433;51.292;6.868;2023-04-27T00:15:47;100736.25;;;2.61;100.00
33075;BME280;19433;51.292;6.868;2023-04-27T00:18:13;100756.25;;;2.52;100.00
33075;BME280;19433;51.292;6.868;2023-04-27T00:20:38;100764.28;;;2.54;100.00
33075;BME280;19433;51.292;6.868;2023-04-27T00:23:04;100755.84;;;2.37;100.00
33075;BME280;19433;51.292;6.868;2023-04-27T00:25:29;100752.22;;;2.46;100.00
33075;BME280;19433;51.292;6.868;2023-04-27T00:27:55;100761.88;;;2.41;100.00
33075;BME280;19433;51.292;6.868;2023-04-27T00:30:20;100750.69;;;2.25;100.00
33075;BME280;19433;51.292;6.868;2023-04-27T00:32:45;100745.34;;;2.33;100.00
33075;BME280;19433;51.292;6.868;2023-04-27T00:35:14;100756.41;;;2.31;100.00
33075;BME280;19433;51.292;6.868;2023-04-27T00:37:39;100767.47;;;2.39;100.00
33075;BME280;19433;51.292;6.868;2023-04-27T00:40:05;100767.75;;;2.17;100.00
33075;BME280;19433;51.292;6.868;2023-04-27T00:42:34;100761.28;;;2.18;100.00
33075;BME280;19433;51.292;6.868;2023-04-27T00:44:59;100759.84;;;2.04;100.00
33075;BME280;19433;51.292;6.868;2023-04-27T00:47:25;100769.34;;;2.10;100.00
33075;BME280;19433;51.292;6.868;2023-04-27T00:49:51;100761.00;;;2.11;100.00
33075;BME280;19433;51.292;6.868;2023-04-27T00:52:17;100776.34;;;2.03;100.00
33075;BME280;19433;51.292;6.868;2023-04-27T00:54:42;100754.81;;;1.81;100.00
33075;BME280;19433;51.292;6.868;2023-04-27T00:57:08;100744.75;;;1.71;100.00
33075;BME280;19433;51.292;6.868;2023-04-27T00:59:33;100755.94;;;1.68;100.00
33075;BME280;19433;51.292;6.868;2023-04-27T01:01:59;100765.41;;;1.64;100.00
33075;BME280;19433;51.292;6.868;2023-04-27T01:04:25;100765.13;;;1.77;100.00
33075;BME280;19433;51.292;6.868;2023-04-27T01:06:51;100762.41;;;1.67;100.00
33075;BME280;19433;51.292;6.868;2023-04-27T01:09:16;100771.00;;;1.72;100.00
33075;BME280;19433;51.292;6.868;2023-04-27T01:11:44;100752.06;;;1.71;100.00
33075;BME280;19433;51.292;6.868;2023-04-27T01:14:10;100751.66;;;1.66;100.00
33075;BME280;19433;51.292;6.868;2023-04-27T01:16:35;100761.69;;;1.75;100.00
33075;BME280;19433;51.292;6.868;2023-04-27T01:19:01;100750.19;;;1.62;100.00
33075;BME280;19433;51.292;6.868;2023-04-27T01:21:26;100760.50;;;1.49;100.00
33075;BME280;19433;51.292;6.868;2023-04-27T01:23:52;100734.47;;;1.25;100.00
33075;BME280;19433;51.292;6.868;2023-04-27T01:26:18;100766.63;;;1.41;100.00
33075;BME280;19433;51.292;6.868;2023-04-27T01:28:43;100749.41;;;1.31;100.00
33075;BME280;19433;51.292;6.868;2023-04-27T01:31:09;100763.56;;;1.25;100.00
33075;BME280;19433;51.292;6.868;2023-04-27T01:33:35;100765.72;;;1.21;100.00
33075;BME280;19433;51.292;6.868;2023-04-27T01:36:01;100767.28;;;1.24;100.00
33075;BME280;19433;51.292;6.868;2023-04-27T01:38:26;100753.38;;;1.17;100.00
33075;BME280;19433;51.292;6.868;2023-04-27T01:40:51;100767.31;;;1.33;100.00
33075;BME280;19433;51.292;6.868;2023-04-27T01:43:19;100763.56;;;1.25;100.00
33075;BME280;19433;51.292;6.868;2023-04-27T01:45:44;100751.63;;;1.07;100.00
33075;BME280;19433;51.292;6.868;2023-04-27T01:48:10;100754.47;;;1.05;100.00
33075;BME280;19433;51.292;6.868;2023-04-27T01:50:35;100768.47;;;1.00;100.00
33075;BME280;19433;51.292;6.868;2023-04-27T01:53:01;100768.94;;;1.05;100.00
33075;BME280;19433;51.292;6.868;2023-04-27T01:55:26;100753.81;;;0.92;100.00
33075;BME280;19433;51.292;6.868;2023-04-27T01:57:51;100766.91;;;1.08;100.00
33075;BME280;19433;51.292;6.868;2023-04-27T02:00:17;100784.88;;;1.20;100.00
33075;BME280;19433;51.292;6.868;2023-04-27T02:02:42;100768.78;;;1.07;100.00
33075;BME280;19433;51.292;6.868;2023-04-27T02:05:08;100785.78;;;0.99;100.00
33075;BME280;19433;51.292;6.868;2023-04-27T02:07:33;100772.31;;;0.98;100.00
33075;BME280;19433;51.292;6.868;2023-04-27T02:09:59;100789.97;;;1.03;100.00
33075;BME280;19433;51.292;6.868;2023-04-27T02:12:24;100794.69;;;1.01;100.00
33075;BME280;19433;51.292;6.868;2023-04-27T02:14:49;100769.22;;;0.82;100.00
33075;BME280;19433;51.292;6.868;2023-04-27T02:17:15;100791.75;;;0.93;100.00
33075;BME280;19433;51.292;6.868;2023-04-27T02:19:40;100780.38;;;0.79;100.00
33075;BME280;19433;51.292;6.868;2023-04-27T02:22:05;100768.75;;;0.77;100.00
33075;BME280;19433;51.292;6.868;2023-04-27T02:24:31;100779.97;;;0.83;100.00
33075;BME280;19433;51.292;6.868;2023-04-27T02:26:56;100765.78;;;0.80;100.00
33075;BME280;19433;51.292;6.868;2023-04-27T02:29:21;100780.97;;;0.82;100.00
33075;BME280;19433;51.292;6.868;2023-04-27T02:31:47;100769.50;;;0.79;100.00
33075;BME280;19433;51.292;6.868;2023-04-27T02:34:12;100775.53;;;0.82;100.00
33075;BME280;19433;51.292;6.868;2023-04-27T02:36:37;100773.16;;;0.89;100.00
33075;BME280;19433;51.292;6.868;2023-04-27T02:39:03;100776.09;;;1.07;100.00
33075;BME280;19433;51.292;6.868;2023-04-27T02:41:31;100775.63;;;1.01;100.00
33075;BME280;19433;51.292;6.868;2023-04-27T02:43:56;100769.63;;;1.08;100.00
33075;BME280;19433;51.292;6.868;2023-04-27T02:46:22;100776.53;;;1.12;100.00
33075;BME280;19433;51.292;6.868;2023-04-27T02:48:47;100782.59;;;1.25;100.00
33075;BME280;19433;51.292;6.868;2023-04-27T02:51:12;100768.25;;;1.23;100.00
33075;BME280;19433;51.292;6.868;2023-04-27T02:53:38;100760.97;;;1.23;100.00
33075;BME280;19433;51.292;6.868;2023-04-27T02:56:03;100771.72;;;1.25;100.00
33075;BME280;19433;51.292;6.868;2023-04-27T02:58:28;100755.22;;;1.17;100.00
33075;BME280;19433;51.292;6.868;2023-04-27T03:00:55;100769.59;;;1.28;100.00
33075;BME280;19433;51.292;6.868;2023-04-27T03:03:21;100764.88;;;1.40;100.00
33075;BME280;19433;51.292;6.868;2023-04-27T03:05:47;100745.56;;;1.43;100.00
33075;BME280;19433;51.292;6.868;2023-04-27T03:08:12;100742.13;;;1.41;100.00
33075;BME280;19433;51.292;6.868;2023-04-27T03:10:37;100746.88;;;1.58;100.00
33075;BME280;19433;51.292;6.868;2023-04-27T03:13:03;100736.13;;;1.57;100.00
33075;BME280;19433;51.292;6.868;2023-04-27T03:15:28;100751.06;;;1.72;100.00
33075;BME280;19433;51.292;6.868;2023-04-27T03:17:53;100746.34;;;1.64;100.00
33075;BME280;19433;51.292;6.868;2023-04-27T03:20:20;100751.34;;;1.69;100.00
33075;BME280;19433;51.292;6.868;2023-04-27T03:22:45;100757.66;;;1.69;100.00
33075;BME280;19433;51.292;6.868;2023-04-27T03:25:11;100753.06;;;1.70;100.00
33075;BME280;19433;51.292;6.868;2023-04-27T03:27:36;100751.22;;;1.70;100.00
33075;BME280;19433;51.292;6.868;2023-04-27T03:30:02;100753.78;;;1.72;100.00
33075;BME280;19433;51.292;6.868;2023-04-27T03:32:28;100754.38;;;1.66;100.00
33075;BME280;19433;51.292;6.868;2023-04-27T03:34:54;100752.38;;;1.77;100.00
33075;BME280;19433;51.292;6.868;2023-04-27T03:37:20;100742.91;;;1.72;100.00
33075;BME280;19433;51.292;6.868;2023-04-27T03:39:45;100759.81;;;1.75;100.00
33075;BME280;19433;51.292;6.868;2023-04-27T03:42:10;100754.97;;;1.79;100.00
33075;BME280;19433;51.292;6.868;2023-04-27T03:44:36;100764.72;;;1.82;100.00
33075;BME280;19433;51.292;6.868;2023-04-27T03:47:01;100754.81;;;1.81;100.00
33075;BME280;19433;51.292;6.868;2023-04-27T03:49:26;100774.84;;;1.70;100.00
33075;BME280;19433;51.292;6.868;2023-04-27T03:51:52;100768.84;;;1.66;100.00
33075;BME280;19433;51.292;6.868;2023-04-27T03:54:17;100767.69;;;1.69;100.00
33075;BME280;19433;51.292;6.868;2023-04-27T03:56:42;100761.97;;;1.62;100.00
33075;BME280;19433;51.292;6.868;2023-04-27T03:59:08;100766.94;;;1.57;100.00
33075;BME280;19433;51.292;6.868;2023-04-27T04:01:33;100775.72;;;1.61;100.00
33075;BME280;19433;51.292;6.868;2023-04-27T04:03:59;100768.22;;;1.53;100.00
33075;BME280;19433;51.292;6.868;2023-04-27T04:06:24;100782.28;;;1.49;100.00
33075;BME280;19433;51.292;6.868;2023-04-27T04:08:50;100785.84;;;1.49;100.00
33075;BME280;19433;51.292;6.868;2023-04-27T04:11:15;100778.22;;;1.43;100.00
33075;BME280;19433;51.292;6.868;2023-04-27T04:13:40;100776.97;;;1.47;100.00
33075;BME280;19433;51.292;6.868;2023-04-27T04:16:07;100782.44;;;1.57;100.00
33075;BME280;19433;51.292;6.868;2023-04-27T04:18:33;100776.25;;;1.55;100.00
33075;BME280;19433;51.292;6.868;2023-04-27T04:20:59;100784.16;;;1.58;100.00
33075;BME280;19433;51.292;6.868;2023-04-27T04:23:24;100783.13;;;1.49;100.00
33075;BME280;19433;51.292;6.868;2023-04-27T04:25:50;100795.19;;;1.56;100.00
33075;BME280;19433;51.292;6.868;2023-04-27T04:28:16;100788.78;;;1.67;100.00
33075;BME280;19433;51.292;6.868;2023-04-27T04:30:41;100782.47;;;1.66;100.00
33075;BME280;19433;51.292;6.868;2023-04-27T04:33:08;100782.47;;;1.76;100.00
33075;BME280;19433;51.292;6.868;2023-04-27T04:35:36;100788.34;;;1.71;100.00
33075;BME280;19433;51.292;6.868;2023-04-27T04:38:02;100791.66;;;1.85;100.00
33075;BME280;19433;51.292;6.868;2023-04-27T04:40:27;100786.50;;;1.91;100.00
33075;BME280;19433;51.292;6.868;2023-04-27T04:42:52;100795.09;;;1.87;100.00
33075;BME280;19433;51.292;6.868;2023-04-27T04:45:18;100786.25;;;1.94;100.00
33075;BME280;19433;51.292;6.868;2023-04-27T04:47:43;100792.56;;;1.95;100.00
33075;BME280;19433;51.292;6.868;2023-04-27T04:50:09;100801.44;;;2.06;100.00
33075;BME280;19433;51.292;6.868;2023-04-27T04:52:34;100794.13;;;2.07;100.00
33075;BME280;19433;51.292;6.868;2023-04-27T04:55:01;100807.63;;;2.18;100.00
33075;BME280;19433;51.292;6.868;2023-04-27T04:57:27;100797.59;;;2.28;100.00
33075;BME280;19433;51.292;6.868;2023-04-27T04:59:52;100793.00;;;2.29;100.00
33075;BME280;19433;51.292;6.868;2023-04-27T05:02:18;100810.22;;;2.48;100.00
33075;BME280;19433;51.292;6.868;2023-04-27T05:04:43;100795.84;;;2.46;100.00
33075;BME280;19433;51.292;6.868;2023-04-27T05:07:08;100805.19;;;2.54;100.00
33075;BME280;19433;51.292;6.868;2023-04-27T05:09:35;100797.72;;;2.46;100.00
33075;BME280;19433;51.292;6.868;2023-04-27T05:12:00;100807.50;;;2.58;100.00
33075;BME280;19433;51.292;6.868;2023-04-27T05:14:26;100803.03;;;2.57;100.00
33075;BME280;19433;51.292;6.868;2023-04-27T05:16:51;100810.34;;;2.66;100.00
33075;BME280;19433;51.292;6.868;2023-04-27T05:19:16;100820.78;;;2.80;100.00
33075;BME280;19433;51.292;6.868;2023-04-27T05:21:43;100812.03;;;2.87;100.00
33075;BME280;19433;51.292;6.868;2023-04-27T05:24:10;100818.31;;;2.97;100.00
33075;BME280;19433;51.292;6.868;2023-04-27T05:26:35;100814.88;;;3.04;100.00
33075;BME280;19433;51.292;6.868;2023-04-27T05:29:00;100828.91;;;3.19;100.00
33075;BME280;19433;51.292;6.868;2023-04-27T05:31:26;100837.06;;;3.29;100.00
33075;BME280;19433;51.292;6.868;2023-04-27T05:33:52;100833.03;;;3.33;100.00
33075;BME280;19433;51.292;6.868;2023-04-27T05:36:17;100846.19;;;3.47;100.00
33075;BME280;19433;51.292;6.868;2023-04-27T05:38:42;100841.53;;;3.57;100.00
33075;BME280;19433;51.292;6.868;2023-04-27T05:41:07;100845.25;;;3.66;100.00
33075;BME280;19433;51.292;6.868;2023-04-27T05:43:33;100828.09;;;3.73;100.00
33075;BME280;19433;51.292;6.868;2023-04-27T05:45:59;100837.09;;;3.83;100.00
33075;BME280;19433;51.292;6.868;2023-04-27T05:48:24;100844.78;;;3.98;100.00
33075;BME280;19433;51.292;6.868;2023-04-27T05:51:01;100840.63;;;4.21;100.00
33075;BME280;19433;51.292;6.868;2023-04-27T05:53:26;100841.81;;;4.36;99.98
33075;BME280;19433;51.292;6.868;2023-04-27T05:55:52;100827.31;;;4.44;98.58
33075;BME280;19433;51.292;6.868;2023-04-27T05:58:17;100839.84;;;4.46;97.46
33075;BME280;19433;51.292;6.868;2023-04-27T06:00:43;100846.56;;;4.70;97.11
33075;BME280;19433;51.292;6.868;2023-04-27T06:03:08;100853.66;;;4.80;96.24
33075;BME280;19433;51.292;6.868;2023-04-27T06:05:33;100855.84;;;4.94;93.76
33075;BME280;19433;51.292;6.868;2023-04-27T06:07:59;100854.28;;;4.92;93.88
33075;BME280;19433;51.292;6.868;2023-04-27T06:10:24;100855.69;;;4.96;94.27
33075;BME280;19433;51.292;6.868;2023-04-27T06:12:50;100857.84;;;5.10;93.46
33075;BME280;19433;51.292;6.868;2023-04-27T06:15:15;100843.84;;;5.13;92.20
33075;BME280;19433;51.292;6.868;2023-04-27T06:17:41;100850.31;;;5.38;93.41
33075;BME280;19433;51.292;6.868;2023-04-27T06:20:08;100842.44;;;5.35;91.40
33075;BME280;19433;51.292;6.868;2023-04-27T06:22:36;100857.44;;;5.49;90.50
33075;BME280;19433;51.292;6.868;2023-04-27T06:25:05;100839.38;;;5.72;88.61
33075;BME280;19433;51.292;6.868;2023-04-27T06:27:31;100861.25;;;5.90;87.55
33075;BME280;19433;51.292;6.868;2023-04-27T06:29:57;100843.78;;;5.91;87.09
33075;BME280;19433;51.292;6.868;2023-04-27T06:32:22;100860.16;;;6.09;84.27
33075;BME280;19433;51.292;6.868;2023-04-27T06:34:48;100853.13;;;6.14;86.11
33075;BME280;19433;51.292;6.868;2023-04-27T06:37:13;100857.94;;;6.20;84.46
33075;BME280;19433;51.292;6.868;2023-04-27T06:39:42;100864.66;;;6.34;85.56
33075;BME280;19433;51.292;6.868;2023-04-27T06:42:08;100863.47;;;6.37;83.96
33075;BME280;19433;51.292;6.868;2023-04-27T06:44:34;100851.16;;;6.49;80.77
33075;BME280;19433;51.292;6.868;2023-04-27T06:46:59;100859.94;;;6.77;82.31
33075;BME280;19433;51.292;6.868;2023-04-27T06:49:24;100871.44;;;7.04;79.30
33075;BME280;19433;51.292;6.868;2023-04-27T06:51:50;100872.69;;;8.60;73.53
33075;BME280;19433;51.292;6.868;2023-04-27T06:54:15;100875.31;;;10.33;62.96
33075;BME280;19433;51.292;6.868;2023-04-27T06:56:41;100876.19;;;11.61;57.40
33075;BME280;19433;51.292;6.868;2023-04-27T06:59:07;100859.19;;;13.07;54.58
33075;BME280;19433;51.292;6.868;2023-04-27T07:01:32;100870.25;;;14.06;50.87
33075;BME280;19433;51.292;6.868;2023-04-27T07:03:57;100871.41;;;13.46;47.57
33075;BME280;19433;51.292;6.868;2023-04-27T07:06:23;100874.16;;;13.85;47.62
33075;BME280;19433;51.292;6.868;2023-04-27T07:08:49;100882.81;;;14.35;45.96
33075;BME280;19433;51.292;6.868;2023-04-27T07:11:15;100878.53;;;16.87;43.30
33075;BME280;19433;51.292;6.868;2023-04-27T07:13:40;100875.66;;;15.60;42.03
33075;BME280;19433;51.292;6.868;2023-04-27T07:16:06;100882.88;;;15.42;41.70
33075;BME280;19433;51.292;6.868;2023-04-27T07:18:31;100886.97;;;16.81;41.60
33075;BME280;19433;51.292;6.868;2023-04-27T07:20:56;100878.28;;;16.89;38.34
33075;BME280;19433;51.292;6.868;2023-04-27T07:23:22;100880.38;;;15.28;40.58
33075;BME280;19433;51.292;6.868;2023-04-27T07:25:48;100888.44;;;15.92;41.09
33075;BME280;19433;51.292;6.868;2023-04-27T07:28:14;100880.81;;;16.42;41.04
33075;BME280;19433;51.292;6.868;2023-04-27T07:30:39;100877.56;;;16.45;38.96
33075;BME280;19433;51.292;6.868;2023-04-27T07:33:06;100890.84;;;17.93;37.39
33075;BME280;19433;51.292;6.868;2023-04-27T07:35:32;100891.13;;;19.07;34.28
33075;BME280;19433;51.292;6.868;2023-04-27T07:37:59;100893.47;;;19.43;34.48
33075;BME280;19433;51.292;6.868;2023-04-27T07:40:26;100890.28;;;18.54;33.24
33075;BME280;19433;51.292;6.868;2023-04-27T07:42:51;100891.81;;;17.99;35.53
33075;BME280;19433;51.292;6.868;2023-04-27T07:45:17;100893.69;;;18.56;35.59
33075;BME280;19433;51.292;6.868;2023-04-27T07:47:42;100891.00;;;19.30;33.79
33075;BME280;19433;51.292;6.868;2023-04-27T07:50:09;100894.94;;;20.90;31.26
33075;BME280;19433;51.292;6.868;2023-04-27T07:52:34;100903.06;;;20.48;31.43
33075;BME280;19433;51.292;6.868;2023-04-27T07:55:00;100891.75;;;19.54;32.98
33075;BME280;19433;51.292;6.868;2023-04-27T07:57:26;100900.97;;;18.69;32.96
33075;BME280;19433;51.292;6.868;2023-04-27T07:59:52;100904.75;;;19.31;32.85
33075;BME280;19433;51.292;6.868;2023-04-27T08:02:17;100902.88;;;20.16;31.71
33075;BME280;19433;51.292;6.868;2023-04-27T08:04:43;100904.91;;;20.81;30.36
33075;BME280;19433;51.292;6.868;2023-04-27T08:07:08;100907.31;;;20.50;30.83
33075;BME280;19433;51.292;6.868;2023-04-27T08:09:33;100906.84;;;20.20;29.91
33075;BME280;19433;51.292;6.868;2023-04-27T08:11:58;100897.38;;;21.30;29.23
33075;BME280;19433;51.292;6.868;2023-04-27T08:14:24;100891.06;;;20.14;30.49
33075;BME280;19433;51.292;6.868;2023-04-27T08:16:49;100890.00;;;20.20;30.36
33075;BME280;19433;51.292;6.868;2023-04-27T08:19:16;100892.06;;;21.60;29.36
33075;BME280;19433;51.292;6.868;2023-04-27T08:21:41;100897.41;;;21.62;27.44
33075;BME280;19433;51.292;6.868;2023-04-27T08:24:07;100879.63;;;19.82;29.84
33075;BME280;19433;51.292;6.868;2023-04-27T08:26:32;100883.81;;;19.06;30.74
33075;BME280;19433;51.292;6.868;2023-04-27T08:28:57;100876.13;;;17.33;34.75
33075;BME280;19433;51.292;6.868;2023-04-27T08:31:24;100876.75;;;19.03;31.06
33075;BME280;19433;51.292;6.868;2023-04-27T08:33:51;100868.94;;;18.25;31.50
33075;BME280;19433;51.292;6.868;2023-04-27T08:36:17;100868.50;;;18.68;32.10
33075;BME280;19433;51.292;6.868;2023-04-27T08:38:42;100876.81;;;19.20;31.14
33075;BME280;19433;51.292;6.868;2023-04-27T08:41:07;100860.47;;;19.95;29.78
33075;BME280;19433;51.292;6.868;2023-04-27T08:43:36;100858.88;;;20.38;31.34
33075;BME280;19433;51.292;6.868;2023-04-27T08:46:01;100872.75;;;21.15;29.55
33075;BME280;19433;51.292;6.868;2023-04-27T08:48:27;100876.94;;;21.39;28.16
33075;BME280;19433;51.292;6.868;2023-04-27T08:50:54;100872.47;;;21.17;31.10
33075;BME280;19433;51.292;6.868;2023-04-27T08:53:21;100879.41;;;21.31;28.65
33075;BME280;19433;51.292;6.868;2023-04-27T08:55:47;100877.06;;;22.19;29.01
33075;BME280;19433;51.292;6.868;2023-04-27T08:58:13;100879.25;;;22.06;27.40
33075;BME280;19433;51.292;6.868;2023-04-27T09:00:39;100864.25;;;19.67;31.90
33075;BME280;19433;51.292;6.868;2023-04-27T09:03:21;100876.13;;;22.45;26.66
33075;BME280;19433;51.292;6.868;2023-04-27T09:05:46;100874.41;;;23.01;27.85
33075;BME280;19433;51.292;6.868;2023-04-27T09:08:12;100874.94;;;22.93;27.03
33075;BME280;19433;51.292;6.868;2023-04-27T09:10:49;100881.81;;;20.74;26.81
33075;BME280;19433;51.292;6.868;2023-04-27T09:13:15;100869.25;;;20.21;28.50
33075;BME280;19433;51.292;6.868;2023-04-27T09:15:44;100859.09;;;20.15;29.26
33075;BME280;19433;51.292;6.868;2023-04-27T09:20:43;100861.38;;;21.59;27.15
33075;BME280;19433;51.292;6.868;2023-04-27T09:23:08;100858.34;;;20.85;26.47
33075;BME280;19433;51.292;6.868;2023-04-27T09:25:34;100852.53;;;19.54;29.70
33075;BME280;19433;51.292;6.868;2023-04-27T09:28:00;100862.53;;;21.09;27.01
33075;BME280;19433;51.292;6.868;2023-04-27T09:30:27;100854.28;;;20.97;27.91
33075;BME280;19433;51.292;6.868;2023-04-27T09:32:54;100860.72;;;20.49;27.38
33075;BME280;19433;51.292;6.868;2023-04-27T09:35:25;100858.28;;;19.97;30.14
33075;BME280;19433;51.292;6.868;2023-04-27T09:37:52;100850.28;;;22.58;23.67
33075;BME280;19433;51.292;6.868;2023-04-27T09:40:22;100863.16;;;24.48;22.25
33075;BME280;19433;51.292;6.868;2023-04-27T09:42:51;100861.91;;;21.56;23.96
33075;BME280;19433;51.292;6.868;2023-04-27T09:45:16;100856.53;;;20.74;26.22
33075;BME280;19433;51.292;6.868;2023-04-27T09:47:43;100849.66;;;20.86;28.27
33075;BME280;19433;51.292;6.868;2023-04-27T09:50:11;100859.94;;;21.51;25.81
33075;BME280;19433;51.292;6.868;2023-04-27T09:52:37;100850.47;;;19.83;26.95
33075;BME280;19433;51.292;6.868;2023-04-27T09:55:03;100855.22;;;21.62;25.23
33075;BME280;19433;51.292;6.868;2023-04-27T09:57:54;100855.72;;;22.80;27.50
33075;BME280;19433;51.292;6.868;2023-04-27T10:00:32;100845.19;;;21.39;26.40
33075;BME280;19433;51.292;6.868;2023-04-27T10:03:19;100831.09;;;20.20;27.60
33075;BME280;19433;51.292;6.868;2023-04-27T10:06:06;100829.19;;;19.87;29.77
33075;BME280;19433;51.292;6.868;2023-04-27T10:08:43;100837.13;;;20.28;28.60
33075;BME280;19433;51.292;6.868;2023-04-27T10:11:15;100832.69;;;19.44;29.22
33075;BME280;19433;51.292;6.868;2023-04-27T10:13:53;100831.16;;;20.42;28.24
33075;BME280;19433;51.292;6.868;2023-04-27T10:16:19;100818.78;;;21.77;29.24
33075;BME280;19433;51.292;6.868;2023-04-27T10:18:55;100827.91;;;19.27;29.51
33075;BME280;19433;51.292;6.868;2023-04-27T10:21:21;100811.91;;;18.94;28.92
33075;BME280;19433;51.292;6.868;2023-04-27T10:23:50;100804.81;;;20.69;30.34
33075;BME280;19433;51.292;6.868;2023-04-27T10:26:26;100803.78;;;22.56;27.23
33075;BME280;19433;51.292;6.868;2023-04-27T10:29:07;100804.34;;;21.63;27.62
33075;BME280;19433;51.292;6.868;2023-04-27T10:31:33;100807.56;;;18.87;28.00
33075;BME280;19433;51.292;6.868;2023-04-27T10:34:06;100785.81;;;16.85;30.83
33075;BME280;19433;51.292;6.868;2023-04-27T10:36:36;100796.38;;;18.87;29.50
33075;BME280;19433;51.292;6.868;2023-04-27T10:39:12;100797.06;;;18.94;27.87
33075;BME280;19433;51.292;6.868;2023-04-27T10:41:48;100810.75;;;20.29;27.75
33075;BME280;19433;51.292;6.868;2023-04-27T10:44:18;100796.97;;;21.20;25.58
33075;BME280;19433;51.292;6.868;2023-04-27T10:46:51;100795.56;;;21.55;26.38
33075;BME280;19433;51.292;6.868;2023-04-27T10:49:17;100791.38;;;21.25;26.73
33075;BME280;19433;51.292;6.868;2023-04-27T10:51:42;100784.94;;;21.62;26.03
33075;BME280;19433;51.292;6.868;2023-04-27T10:54:08;100783.00;;;20.77;27.54
33075;BME280;19433;51.292;6.868;2023-04-27T10:56:33;100785.56;;;21.10;29.34
33075;BME280;19433;51.292;6.868;2023-04-27T10:59:05;100803.09;;;22.91;25.99
33075;BME280;19433;51.292;6.868;2023-04-27T11:01:30;100805.94;;;21.54;25.40
33075;BME280;19433;51.292;6.868;2023-04-27T11:03:59;100800.41;;;22.01;26.62
33075;BME280;19433;51.292;6.868;2023-04-27T11:06:26;100792.00;;;21.69;26.78
33075;BME280;19433;51.292;6.868;2023-04-27T11:08:52;100783.53;;;19.36;29.23
33075;BME280;19433;51.292;6.868;2023-04-27T11:11:18;100790.28;;;20.51;29.75
33075;BME280;19433;51.292;6.868;2023-04-27T11:13:44;100803.34;;;21.80;24.94
33075;BME280;19433;51.292;6.868;2023-04-27T11:16:12;100796.94;;;23.70;24.98
33075;BME280;19433;51.292;6.868;2023-04-27T11:18:39;100791.75;;;24.33;24.73
33075;BME280;19433;51.292;6.868;2023-04-27T11:21:06;100783.56;;;22.74;23.95
33075;BME280;19433;51.292;6.868;2023-04-27T11:23:32;100786.47;;;22.22;23.71
33075;BME280;19433;51.292;6.868;2023-04-27T11:26:17;100778.91;;;21.85;27.48
33075;BME280;19433;51.292;6.868;2023-04-27T11:28:44;100789.50;;;21.68;24.70
33075;BME280;19433;51.292;6.868;2023-04-27T11:31:21;100783.63;;;21.74;25.00
33075;BME280;19433;51.292;6.868;2023-04-27T11:33:47;100781.69;;;23.25;26.25
33075;BME280;19433;51.292;6.868;2023-04-27T11:36:17;100777.91;;;24.96;23.87
33075;BME280;19433;51.292;6.868;2023-04-27T11:38:43;100791.53;;;27.80;22.59
33075;BME280;19433;51.292;6.868;2023-04-27T11:41:08;100786.03;;;27.70;20.27
33075;BME280;19433;51.292;6.868;2023-04-27T11:43:39;100808.91;;;28.79;19.03
33075;BME280;19433;51.292;6.868;2023-04-27T11:46:05;100779.88;;;27.11;21.85
33075;BME280;19433;51.292;6.868;2023-04-27T11:48:35;100787.41;;;25.15;21.58
33075;BME280;19433;51.292;6.868;2023-04-27T11:51:04;100772.63;;;25.57;21.77
33075;BME280;19433;51.292;6.868;2023-04-27T11:53:34;100768.75;;;27.34;22.25
33075;BME280;19433;51.292;6.868;2023-04-27T11:56:05;100778.81;;;29.36;21.27
33075;BME280;19433;51.292;6.868;2023-04-27T11:58:32;100779.28;;;30.76;19.82
33075;BME280;19433;51.292;6.868;2023-04-27T12:00:58;100784.25;;;31.27;18.37
33075;BME280;19433;51.292;6.868;2023-04-27T12:03:24;100784.38;;;31.57;17.71
33075;BME280;19433;51.292;6.868;2023-04-27T12:05:50;100781.25;;;32.13;17.25
33075;BME280;19433;51.292;6.868;2023-04-27T12:08:17;100772.38;;;30.29;18.09
33075;BME280;19433;51.292;6.868;2023-04-27T12:10:42;100762.00;;;30.81;17.29
33075;BME280;19433;51.292;6.868;2023-04-27T12:13:08;100757.63;;;26.81;21.09
33075;BME280;19433;51.292;6.868;2023-04-27T12:15:33;100752.56;;;25.53;21.69
33075;BME280;19433;51.292;6.868;2023-04-27T12:17:58;100740.06;;;25.59;22.53
33075;BME280;19433;51.292;6.868;2023-04-27T12:20:24;100732.09;;;23.55;23.47
33075;BME280;19433;51.292;6.868;2023-04-27T12:22:49;100729.13;;;22.48;24.53
33075;BME280;19433;51.292;6.868;2023-04-27T12:25:15;100736.31;;;23.47;21.96
33075;BME280;19433;51.292;6.868;2023-04-27T12:27:41;100741.69;;;23.28;22.47
33075;BME280;19433;51.292;6.868;2023-04-27T12:30:08;100735.44;;;22.80;27.07
33075;BME280;19433;51.292;6.868;2023-04-27T12:32:33;100728.78;;;21.03;27.01
33075;BME280;19433;51.292;6.868;2023-04-27T12:34:58;100726.25;;;22.28;24.55
33075;BME280;19433;51.292;6.868;2023-04-27T12:37:24;100732.34;;;23.23;23.19
33075;BME280;19433;51.292;6.868;2023-04-27T12:39:49;100728.41;;;23.79;23.35
33075;BME280;19433;51.292;6.868;2023-04-27T12:42:14;100722.22;;;23.42;22.83
33075;BME280;19433;51.292;6.868;2023-04-27T12:44:43;100725.88;;;25.93;20.95
33075;BME280;19433;51.292;6.868;2023-04-27T12:47:08;100737.53;;;27.66;21.44
33075;BME280;19433;51.292;6.868;2023-04-27T12:49:34;100727.69;;;26.93;18.85